sensor_id;sensor_type;location;lat;lon;timestamp;P1;durP1;ratioP1;P2;durP2;ratioP2
8319;SDS011;4197;42.130;24.746;2023-01-24T00:01:16;33.53;;;19.87;;
8319;SDS011;4197;42.130;24.746;2023-01-24T00:03:45;37.80;;;19.40;;
8319;SDS011;4197;42.130;24.746;2023-01-24T00:06:13;35.47;;;18.67;;
8319;SDS011;4197;42.130;24.746;2023-01-24T00:08:42;33.63;;;18.63;;
8319;SDS011;4197;42.130;24.746;2023-01-24T00:11:11;41.97;;;20.23;;
8319;SDS011;4197;42.130;24.746;2023-01-24T00:13:40;31.67;;;17.27;;
8319;SDS011;4197;42.130;24.746;2023-01-24T00:16:11;36.13;;;18.47;;
8319;SDS011;4197;42.130;24.746;2023-01-24T00:18:41;33.03;;;18.97;;
8319;SDS011;4197;42.130;24.746;2023-01-24T00:21:10;33.07;;;19.50;;
8319;SDS011;4197;42.130;24.746;2023-01-24T00:23:40;37.80;;;20.83;;
8319;SDS011;4197;42.130;24.746;2023-01-24T00:26:09;35.23;;;19.70;;
8319;SDS011;4197;42.130;24.746;2023-01-24T00:28:37;37.17;;;19.43;;
8319;SDS011;4197;42.130;24.746;2023-01-24T00:31:06;37.37;;;19.63;;
8319;SDS011;4197;42.130;24.746;2023-01-24T00:33:36;40.63;;;19.27;;
8319;SDS011;4197;42.130;24.746;2023-01-24T00:36:05;39.73;;;19.80;;
8319;SDS011;4197;42.130;24.746;2023-01-24T00:38:33;36.47;;;19.93;;
8319;SDS011;4197;42.130;24.746;2023-01-24T00:41:02;35.47;;;20.03;;
8319;SDS011;4197;42.130;24.746;2023-01-24T00:43:30;37.90;;;19.13;;
8319;SDS011;4197;42.130;24.746;2023-01-24T00:45:58;37.77;;;19.83;;
8319;SDS011;4197;42.130;24.746;2023-01-24T00:48:26;37.93;;;20.30;;
8319;SDS011;4197;42.130;24.746;2023-01-24T00:50:56;35.30;;;19.93;;
8319;SDS011;4197;42.130;24.746;2023-01-24T00:53:24;41.67;;;19.83;;
8319;SDS011;4197;42.130;24.746;2023-01-24T00:55:52;34.23;;;19.23;;
8319;SDS011;4197;42.130;24.746;2023-01-24T00:58:22;38.17;;;20.40;;
8319;SDS011;4197;42.130;24.746;2023-01-24T01:00:50;40.10;;;22.00;;
8319;SDS011;4197;42.130;24.746;2023-01-24T01:03:22;38.97;;;19.40;;
8319;SDS011;4197;42.130;24.746;2023-01-24T01:05:57;35.77;;;19.07;;
8319;SDS011;4197;42.130;24.746;2023-01-24T01:08:26;35.53;;;19.63;;
8319;SDS011;4197;42.130;24.746;2023-01-24T01:10:54;39.37;;;19.67;;
8319;SDS011;4197;42.130;24.746;2023-01-24T01:13:22;37.70;;;20.27;;
8319;SDS011;4197;42.130;24.746;2023-01-24T01:15:51;36.43;;;20.40;;
8319;SDS011;4197;42.130;24.746;2023-01-24T01:18:28;35.87;;;20.43;;
8319;SDS011;4197;42.130;24.746;2023-01-24T01:20:57;35.73;;;19.90;;
8319;SDS011;4197;42.130;24.746;2023-01-24T01:23:25;35.97;;;20.13;;
8319;SDS011;4197;42.130;24.746;2023-01-24T01:25:57;33.80;;;19.73;;
8319;SDS011;4197;42.130;24.746;2023-01-24T01:28:26;39.50;;;20.90;;
8319;SDS011;4197;42.130;24.746;2023-01-24T01:30:55;31.37;;;19.17;;
8319;SDS011;4197;42.130;24.746;2023-01-24T01:33:23;37.27;;;19.77;;
8319;SDS011;4197;42.130;24.746;2023-01-24T01:35:52;38.43;;;19.37;;
8319;SDS011;4197;42.130;24.746;2023-01-24T01:38:22;31.60;;;18.53;;
8319;SDS011;4197;42.130;24.746;2023-01-24T01:40:54;40.80;;;18.93;;
8319;SDS011;4197;42.130;24.746;2023-01-24T01:43:23;34.20;;;18.00;;
8319;SDS011;4197;42.130;24.746;2023-01-24T01:45:52;33.87;;;18.43;;
8319;SDS011;4197;42.130;24.746;2023-01-24T01:48:23;33.23;;;18.67;;
8319;SDS011;4197;42.130;24.746;2023-01-24T01:51:00;33.83;;;19.27;;
8319;SDS011;4197;42.130;24.746;2023-01-24T01:53:36;36.83;;;19.90;;
8319;SDS011;4197;42.130;24.746;2023-01-24T01:56:09;33.27;;;18.20;;
8319;SDS011;4197;42.130;24.746;2023-01-24T01:58:43;36.13;;;18.40;;
8319;SDS011;4197;42.130;24.746;2023-01-24T02:01:11;35.77;;;19.03;;
8319;SDS011;4197;42.130;24.746;2023-01-24T02:03:42;34.53;;;18.10;;
8319;SDS011;4197;42.130;24.746;2023-01-24T02:06:21;33.70;;;18.40;;
8319;SDS011;4197;42.130;24.746;2023-01-24T02:08:58;36.00;;;19.00;;
8319;SDS011;4197;42.130;24.746;2023-01-24T02:11:30;37.07;;;18.87;;
8319;SDS011;4197;42.130;24.746;2023-01-24T02:14:08;32.13;;;18.77;;
8319;SDS011;4197;42.130;24.746;2023-01-24T02:16:55;35.97;;;17.73;;
8319;SDS011;4197;42.130;24.746;2023-01-24T02:19:31;36.60;;;18.13;;
8319;SDS011;4197;42.130;24.746;2023-01-24T02:22:11;33.87;;;18.27;;
8319;SDS011;4197;42.130;24.746;2023-01-24T02:24:48;31.63;;;18.10;;
8319;SDS011;4197;42.130;24.746;2023-01-24T02:27:26;30.43;;;17.10;;
8319;SDS011;4197;42.130;24.746;2023-01-24T02:29:55;36.97;;;18.20;;
8319;SDS011;4197;42.130;24.746;2023-01-24T02:32:24;32.27;;;17.67;;
8319;SDS011;4197;42.130;24.746;2023-01-24T02:34:53;31.70;;;16.60;;
8319;SDS011;4197;42.130;24.746;2023-01-24T02:37:21;38.33;;;17.80;;
8319;SDS011;4197;42.130;24.746;2023-01-24T02:39:50;28.13;;;16.50;;
8319;SDS011;4197;42.130;24.746;2023-01-24T02:42:23;30.07;;;16.37;;
8319;SDS011;4197;42.130;24.746;2023-01-24T02:44:57;31.97;;;15.90;;
8319;SDS011;4197;42.130;24.746;2023-01-24T02:47:36;28.00;;;16.23;;
8319;SDS011;4197;42.130;24.746;2023-01-24T02:50:08;25.00;;;12.83;;
8319;SDS011;4197;42.130;24.746;2023-01-24T02:52:37;25.37;;;15.40;;
8319;SDS011;4197;42.130;24.746;2023-01-24T02:55:23;29.67;;;16.73;;
8319;SDS011;4197;42.130;24.746;2023-01-24T02:57:54;33.50;;;15.80;;
8319;SDS011;4197;42.130;24.746;2023-01-24T03:00:33;28.50;;;16.17;;
8319;SDS011;4197;42.130;24.746;2023-01-24T03:03:03;27.33;;;17.00;;
8319;SDS011;4197;42.130;24.746;2023-01-24T03:05:32;29.97;;;16.30;;
8319;SDS011;4197;42.130;24.746;2023-01-24T03:08:23;28.43;;;16.20;;
8319;SDS011;4197;42.130;24.746;2023-01-24T03:13:40;34.40;;;17.40;;
8319;SDS011;4197;42.130;24.746;2023-01-24T03:16:26;28.00;;;17.10;;
8319;SDS011;4197;42.130;24.746;2023-01-24T03:19:12;27.07;;;15.63;;
8319;SDS011;4197;42.130;24.746;2023-01-24T03:21:57;26.93;;;15.77;;
8319;SDS011;4197;42.130;24.746;2023-01-24T03:24:43;27.03;;;15.80;;
8319;SDS011;4197;42.130;24.746;2023-01-24T03:27:28;25.10;;;14.03;;
8319;SDS011;4197;42.130;24.746;2023-01-24T03:30:15;28.47;;;16.53;;
8319;SDS011;4197;42.130;24.746;2023-01-24T03:33:02;30.37;;;16.27;;
8319;SDS011;4197;42.130;24.746;2023-01-24T03:35:48;34.53;;;19.57;;
8319;SDS011;4197;42.130;24.746;2023-01-24T03:38:20;32.40;;;18.10;;
8319;SDS011;4197;42.130;24.746;2023-01-24T03:41:07;32.10;;;18.93;;
8319;SDS011;4197;42.130;24.746;2023-01-24T03:43:35;35.70;;;19.47;;
8319;SDS011;4197;42.130;24.746;2023-01-24T03:46:04;34.37;;;18.50;;
8319;SDS011;4197;42.130;24.746;2023-01-24T03:48:32;37.50;;;19.93;;
8319;SDS011;4197;42.130;24.746;2023-01-24T03:51:03;34.00;;;19.53;;
8319;SDS011;4197;42.130;24.746;2023-01-24T03:53:49;36.60;;;19.47;;
8319;SDS011;4197;42.130;24.746;2023-01-24T03:56:17;33.57;;;18.03;;
8319;SDS011;4197;42.130;24.746;2023-01-24T03:58:46;33.63;;;18.37;;
8319;SDS011;4197;42.130;24.746;2023-01-24T04:01:15;32.50;;;17.73;;
8319;SDS011;4197;42.130;24.746;2023-01-24T04:03:43;31.10;;;16.77;;
8319;SDS011;4197;42.130;24.746;2023-01-24T04:06:11;32.07;;;17.63;;
8319;SDS011;4197;42.130;24.746;2023-01-24T04:08:40;31.50;;;19.20;;
8319;SDS011;4197;42.130;24.746;2023-01-24T04:11:08;31.07;;;17.50;;
8319;SDS011;4197;42.130;24.746;2023-01-24T04:13:36;28.27;;;17.03;;
8319;SDS011;4197;42.130;24.746;2023-01-24T04:16:05;30.63;;;17.43;;
8319;SDS011;4197;42.130;24.746;2023-01-24T04:18:36;28.37;;;16.63;;
8319;SDS011;4197;42.130;24.746;2023-01-24T04:21:04;31.63;;;17.50;;
8319;SDS011;4197;42.130;24.746;2023-01-24T04:23:33;35.63;;;17.83;;
8319;SDS011;4197;42.130;24.746;2023-01-24T04:26:01;35.40;;;17.30;;
8319;SDS011;4197;42.130;24.746;2023-01-24T04:28:30;29.67;;;16.73;;
8319;SDS011;4197;42.130;24.746;2023-01-24T04:30:59;31.37;;;17.10;;
8319;SDS011;4197;42.130;24.746;2023-01-24T04:33:28;29.43;;;16.60;;
8319;SDS011;4197;42.130;24.746;2023-01-24T04:35:58;27.43;;;17.30;;
8319;SDS011;4197;42.130;24.746;2023-01-24T04:38:26;31.30;;;17.47;;
8319;SDS011;4197;42.130;24.746;2023-01-24T04:40:58;29.37;;;17.33;;
8319;SDS011;4197;42.130;24.746;2023-01-24T04:43:26;34.00;;;16.93;;
8319;SDS011;4197;42.130;24.746;2023-01-24T04:45:55;34.67;;;18.97;;
8319;SDS011;4197;42.130;24.746;2023-01-24T04:48:24;31.30;;;17.53;;
8319;SDS011;4197;42.130;24.746;2023-01-24T04:50:58;29.93;;;17.10;;
8319;SDS011;4197;42.130;24.746;2023-01-24T04:53:26;29.63;;;18.67;;
8319;SDS011;4197;42.130;24.746;2023-01-24T04:55:59;26.23;;;15.40;;
8319;SDS011;4197;42.130;24.746;2023-01-24T04:58:27;33.00;;;18.10;;
8319;SDS011;4197;42.130;24.746;2023-01-24T05:00:56;30.57;;;18.30;;
8319;SDS011;4197;42.130;24.746;2023-01-24T05:03:25;31.47;;;17.90;;
8319;SDS011;4197;42.130;24.746;2023-01-24T05:05:54;32.27;;;18.80;;
8319;SDS011;4197;42.130;24.746;2023-01-24T05:08:24;29.57;;;18.33;;
8319;SDS011;4197;42.130;24.746;2023-01-24T05:10:52;38.60;;;17.20;;
8319;SDS011;4197;42.130;24.746;2023-01-24T05:13:21;26.43;;;15.53;;
8319;SDS011;4197;42.130;24.746;2023-01-24T05:15:50;25.07;;;16.60;;
8319;SDS011;4197;42.130;24.746;2023-01-24T05:18:19;31.43;;;16.97;;
8319;SDS011;4197;42.130;24.746;2023-01-24T05:20:47;33.43;;;17.80;;
8319;SDS011;4197;42.130;24.746;2023-01-24T05:23:15;36.60;;;17.20;;
8319;SDS011;4197;42.130;24.746;2023-01-24T05:25:45;28.03;;;17.27;;
8319;SDS011;4197;42.130;24.746;2023-01-24T05:28:13;32.77;;;19.10;;
8319;SDS011;4197;42.130;24.746;2023-01-24T05:30:41;25.00;;;16.77;;
8319;SDS011;4197;42.130;24.746;2023-01-24T05:33:09;26.97;;;15.90;;
8319;SDS011;4197;42.130;24.746;2023-01-24T05:35:37;29.80;;;17.27;;
8319;SDS011;4197;42.130;24.746;2023-01-24T05:38:07;32.47;;;17.77;;
8319;SDS011;4197;42.130;24.746;2023-01-24T05:40:35;28.73;;;16.77;;
8319;SDS011;4197;42.130;24.746;2023-01-24T05:43:04;26.83;;;16.13;;
8319;SDS011;4197;42.130;24.746;2023-01-24T05:45:33;31.50;;;18.53;;
8319;SDS011;4197;42.130;24.746;2023-01-24T05:48:01;27.47;;;18.40;;
8319;SDS011;4197;42.130;24.746;2023-01-24T05:50:29;27.73;;;16.33;;
8319;SDS011;4197;42.130;24.746;2023-01-24T05:52:57;23.80;;;16.20;;
8319;SDS011;4197;42.130;24.746;2023-01-24T05:55:29;30.43;;;16.80;;
8319;SDS011;4197;42.130;24.746;2023-01-24T05:57:57;27.50;;;16.40;;
8319;SDS011;4197;42.130;24.746;2023-01-24T06:00:27;27.17;;;15.97;;
8319;SDS011;4197;42.130;24.746;2023-01-24T06:03:00;26.30;;;15.57;;
8319;SDS011;4197;42.130;24.746;2023-01-24T06:05:29;26.70;;;18.57;;
8319;SDS011;4197;42.130;24.746;2023-01-24T06:07:57;26.40;;;17.27;;
8319;SDS011;4197;42.130;24.746;2023-01-24T06:10:25;23.93;;;17.33;;
8319;SDS011;4197;42.130;24.746;2023-01-24T06:12:53;28.60;;;17.40;;
8319;SDS011;4197;42.130;24.746;2023-01-24T06:15:22;26.47;;;17.03;;
8319;SDS011;4197;42.130;24.746;2023-01-24T06:17:52;25.67;;;17.17;;
8319;SDS011;4197;42.130;24.746;2023-01-24T06:20:24;30.40;;;17.07;;
8319;SDS011;4197;42.130;24.746;2023-01-24T06:22:53;29.77;;;17.77;;
8319;SDS011;4197;42.130;24.746;2023-01-24T06:25:25;26.43;;;18.00;;
8319;SDS011;4197;42.130;24.746;2023-01-24T06:27:53;28.23;;;18.47;;
8319;SDS011;4197;42.130;24.746;2023-01-24T06:30:22;29.37;;;17.63;;
8319;SDS011;4197;42.130;24.746;2023-01-24T06:33:06;31.80;;;19.70;;
8319;SDS011;4197;42.130;24.746;2023-01-24T06:35:47;26.50;;;18.47;;
8319;SDS011;4197;42.130;24.746;2023-01-24T06:38:35;27.70;;;18.07;;
8319;SDS011;4197;42.130;24.746;2023-01-24T06:41:03;27.77;;;17.83;;
8319;SDS011;4197;42.130;24.746;2023-01-24T06:43:41;22.47;;;15.30;;
8319;SDS011;4197;42.130;24.746;2023-01-24T06:46:11;22.47;;;13.93;;
8319;SDS011;4197;42.130;24.746;2023-01-24T06:48:43;21.33;;;14.33;;
8319;SDS011;4197;42.130;24.746;2023-01-24T06:51:12;23.37;;;14.67;;
8319;SDS011;4197;42.130;24.746;2023-01-24T06:53:41;26.93;;;15.97;;
8319;SDS011;4197;42.130;24.746;2023-01-24T06:56:09;25.53;;;17.13;;
8319;SDS011;4197;42.130;24.746;2023-01-24T06:58:38;25.57;;;15.73;;
8319;SDS011;4197;42.130;24.746;2023-01-24T07:01:06;24.97;;;17.47;;
8319;SDS011;4197;42.130;24.746;2023-01-24T07:03:34;28.13;;;18.00;;
8319;SDS011;4197;42.130;24.746;2023-01-24T07:06:04;29.47;;;19.07;;
8319;SDS011;4197;42.130;24.746;2023-01-24T07:08:32;27.00;;;18.17;;
8319;SDS011;4197;42.130;24.746;2023-01-24T07:11:00;28.37;;;18.90;;
8319;SDS011;4197;42.130;24.746;2023-01-24T07:13:29;28.63;;;18.23;;
8319;SDS011;4197;42.130;24.746;2023-01-24T07:15:59;23.50;;;16.90;;
8319;SDS011;4197;42.130;24.746;2023-01-24T07:18:28;19.43;;;14.03;;
8319;SDS011;4197;42.130;24.746;2023-01-24T07:20:57;24.03;;;14.47;;
8319;SDS011;4197;42.130;24.746;2023-01-24T07:23:27;19.30;;;12.87;;
8319;SDS011;4197;42.130;24.746;2023-01-24T07:25:56;21.97;;;14.17;;
8319;SDS011;4197;42.130;24.746;2023-01-24T07:28:25;22.23;;;14.30;;
8319;SDS011;4197;42.130;24.746;2023-01-24T07:30:53;21.93;;;14.57;;
8319;SDS011;4197;42.130;24.746;2023-01-24T07:33:21;19.60;;;13.60;;
8319;SDS011;4197;42.130;24.746;2023-01-24T07:35:49;20.63;;;14.47;;
8319;SDS011;4197;42.130;24.746;2023-01-24T07:38:18;33.13;;;18.70;;
8319;SDS011;4197;42.130;24.746;2023-01-24T07:40:47;194.37;;;89.43;;
8319;SDS011;4197;42.130;24.746;2023-01-24T07:43:15;27.10;;;18.50;;
8319;SDS011;4197;42.130;24.746;2023-01-24T07:45:45;22.57;;;14.70;;
8319;SDS011;4197;42.130;24.746;2023-01-24T07:48:16;21.93;;;15.37;;
8319;SDS011;4197;42.130;24.746;2023-01-24T07:50:44;21.43;;;14.40;;
8319;SDS011;4197;42.130;24.746;2023-01-24T07:53:12;21.17;;;12.93;;
8319;SDS011;4197;42.130;24.746;2023-01-24T07:55:40;24.73;;;11.67;;
8319;SDS011;4197;42.130;24.746;2023-01-24T07:58:27;19.87;;;12.00;;
8319;SDS011;4197;42.130;24.746;2023-01-24T08:00:56;21.90;;;12.63;;
8319;SDS011;4197;42.130;24.746;2023-01-24T08:03:24;19.57;;;10.47;;
8319;SDS011;4197;42.130;24.746;2023-01-24T08:05:53;19.30;;;11.40;;
8319;SDS011;4197;42.130;24.746;2023-01-24T08:08:21;22.03;;;13.67;;
8319;SDS011;4197;42.130;24.746;2023-01-24T08:10:49;17.40;;;12.07;;
8319;SDS011;4197;42.130;24.746;2023-01-24T08:13:17;21.53;;;12.87;;
8319;SDS011;4197;42.130;24.746;2023-01-24T08:15:47;24.90;;;14.17;;
8319;SDS011;4197;42.130;24.746;2023-01-24T08:18:15;21.13;;;13.33;;
8319;SDS011;4197;42.130;24.746;2023-01-24T08:20:44;19.73;;;12.67;;
8319;SDS011;4197;42.130;24.746;2023-01-24T08:23:12;18.60;;;12.13;;
8319;SDS011;4197;42.130;24.746;2023-01-24T08:25:40;21.60;;;12.70;;
8319;SDS011;4197;42.130;24.746;2023-01-24T08:28:11;19.47;;;12.33;;
8319;SDS011;4197;42.130;24.746;2023-01-24T08:30:40;19.30;;;13.43;;
8319;SDS011;4197;42.130;24.746;2023-01-24T08:33:09;19.27;;;13.07;;
8319;SDS011;4197;42.130;24.746;2023-01-24T08:35:45;21.67;;;13.50;;
8319;SDS011;4197;42.130;24.746;2023-01-24T08:38:14;16.33;;;11.47;;
8319;SDS011;4197;42.130;24.746;2023-01-24T08:40:43;21.23;;;12.37;;
8319;SDS011;4197;42.130;24.746;2023-01-24T08:43:15;16.17;;;9.60;;
8319;SDS011;4197;42.130;24.746;2023-01-24T08:45:44;13.63;;;10.07;;
8319;SDS011;4197;42.130;24.746;2023-01-24T08:48:14;23.77;;;11.93;;
8319;SDS011;4197;42.130;24.746;2023-01-24T08:50:42;17.67;;;9.83;;
8319;SDS011;4197;42.130;24.746;2023-01-24T08:53:11;19.10;;;11.20;;
8319;SDS011;4197;42.130;24.746;2023-01-24T08:55:39;17.90;;;11.07;;
8319;SDS011;4197;42.130;24.746;2023-01-24T08:58:07;18.00;;;10.83;;
8319;SDS011;4197;42.130;24.746;2023-01-24T09:00:35;13.80;;;9.70;;
8319;SDS011;4197;42.130;24.746;2023-01-24T09:03:03;16.17;;;9.80;;
8319;SDS011;4197;42.130;24.746;2023-01-24T09:05:33;15.60;;;10.30;;
8319;SDS011;4197;42.130;24.746;2023-01-24T09:08:03;21.77;;;11.47;;
8319;SDS011;4197;42.130;24.746;2023-01-24T09:10:32;20.17;;;10.13;;
8319;SDS011;4197;42.130;24.746;2023-01-24T09:13:00;23.10;;;11.63;;
8319;SDS011;4197;42.130;24.746;2023-01-24T09:15:29;22.83;;;12.00;;
8319;SDS011;4197;42.130;24.746;2023-01-24T09:17:59;17.27;;;11.00;;
8319;SDS011;4197;42.130;24.746;2023-01-24T09:20:28;14.23;;;10.13;;
8319;SDS011;4197;42.130;24.746;2023-01-24T09:22:58;22.13;;;11.73;;
8319;SDS011;4197;42.130;24.746;2023-01-24T09:25:26;17.27;;;10.67;;
8319;SDS011;4197;42.130;24.746;2023-01-24T09:27:57;18.30;;;10.90;;
8319;SDS011;4197;42.130;24.746;2023-01-24T09:30:25;14.57;;;10.13;;
8319;SDS011;4197;42.130;24.746;2023-01-24T09:32:54;14.57;;;8.70;;
8319;SDS011;4197;42.130;24.746;2023-01-24T09:35:22;15.90;;;9.67;;
8319;SDS011;4197;42.130;24.746;2023-01-24T09:37:51;15.53;;;9.93;;
8319;SDS011;4197;42.130;24.746;2023-01-24T09:40:21;18.47;;;10.83;;
8319;SDS011;4197;42.130;24.746;2023-01-24T09:42:56;17.10;;;8.90;;
8319;SDS011;4197;42.130;24.746;2023-01-24T09:45:32;16.67;;;9.20;;
8319;SDS011;4197;42.130;24.746;2023-01-24T09:48:05;15.23;;;9.77;;
8319;SDS011;4197;42.130;24.746;2023-01-24T09:50:38;13.67;;;8.87;;
8319;SDS011;4197;42.130;24.746;2023-01-24T09:53:12;13.73;;;7.13;;
8319;SDS011;4197;42.130;24.746;2023-01-24T09:55:47;13.27;;;7.83;;
8319;SDS011;4197;42.130;24.746;2023-01-24T09:58:27;13.27;;;7.90;;
8319;SDS011;4197;42.130;24.746;2023-01-24T10:01:00;13.50;;;8.57;;
8319;SDS011;4197;42.130;24.746;2023-01-24T10:03:31;15.77;;;10.03;;
8319;SDS011;4197;42.130;24.746;2023-01-24T10:06:05;13.67;;;7.47;;
8319;SDS011;4197;42.130;24.746;2023-01-24T10:08:39;9.63;;;7.07;;
8319;SDS011;4197;42.130;24.746;2023-01-24T10:11:19;14.03;;;7.87;;
8319;SDS011;4197;42.130;24.746;2023-01-24T10:14:04;11.67;;;7.50;;
8319;SDS011;4197;42.130;24.746;2023-01-24T10:20:11;11.43;;;7.10;;
8319;SDS011;4197;42.130;24.746;2023-01-24T10:25:32;12.17;;;6.83;;
8319;SDS011;4197;42.130;24.746;2023-01-24T10:28:12;10.20;;;7.37;;
8319;SDS011;4197;42.130;24.746;2023-01-24T10:30:48;9.60;;;6.20;;
8319;SDS011;4197;42.130;24.746;2023-01-24T10:33:21;14.27;;;7.30;;
8319;SDS011;4197;42.130;24.746;2023-01-24T10:35:56;12.97;;;7.50;;
8319;SDS011;4197;42.130;24.746;2023-01-24T10:38:26;13.27;;;7.17;;
8319;SDS011;4197;42.130;24.746;2023-01-24T10:40:56;10.43;;;7.60;;
8319;SDS011;4197;42.130;24.746;2023-01-24T10:43:39;11.20;;;7.00;;
8319;SDS011;4197;42.130;24.746;2023-01-24T10:46:12;9.47;;;6.67;;
8319;SDS011;4197;42.130;24.746;2023-01-24T10:48:53;11.43;;;6.63;;
8319;SDS011;4197;42.130;24.746;2023-01-24T10:51:25;9.40;;;6.37;;
8319;SDS011;4197;42.130;24.746;2023-01-24T10:53:57;10.03;;;7.13;;
8319;SDS011;4197;42.130;24.746;2023-01-24T10:56:29;13.57;;;8.00;;
8319;SDS011;4197;42.130;24.746;2023-01-24T10:58:59;11.17;;;8.57;;
8319;SDS011;4197;42.130;24.746;2023-01-24T11:01:33;15.00;;;10.37;;
8319;SDS011;4197;42.130;24.746;2023-01-24T11:04:12;12.87;;;9.10;;
8319;SDS011;4197;42.130;24.746;2023-01-24T11:06:43;11.63;;;8.10;;
8319;SDS011;4197;42.130;24.746;2023-01-24T11:09:14;14.83;;;7.47;;
8319;SDS011;4197;42.130;24.746;2023-01-24T11:11:46;14.20;;;8.67;;
8319;SDS011;4197;42.130;24.746;2023-01-24T11:14:19;12.97;;;8.27;;
8319;SDS011;4197;42.130;24.746;2023-01-24T11:16:50;16.70;;;8.70;;
8319;SDS011;4197;42.130;24.746;2023-01-24T11:19:21;19.67;;;8.07;;
8319;SDS011;4197;42.130;24.746;2023-01-24T11:21:54;10.27;;;7.00;;
8319;SDS011;4197;42.130;24.746;2023-01-24T11:24:24;11.03;;;6.97;;
8319;SDS011;4197;42.130;24.746;2023-01-24T11:26:55;8.43;;;6.27;;
8319;SDS011;4197;42.130;24.746;2023-01-24T11:29:26;11.77;;;6.60;;
8319;SDS011;4197;42.130;24.746;2023-01-24T11:31:55;9.80;;;6.63;;
8319;SDS011;4197;42.130;24.746;2023-01-24T11:34:34;15.40;;;7.23;;
8319;SDS011;4197;42.130;24.746;2023-01-24T11:37:14;10.97;;;6.23;;
8319;SDS011;4197;42.130;24.746;2023-01-24T11:40:02;12.33;;;7.60;;
8319;SDS011;4197;42.130;24.746;2023-01-24T11:42:49;8.63;;;4.93;;
8319;SDS011;4197;42.130;24.746;2023-01-24T11:45:35;12.13;;;6.23;;
8319;SDS011;4197;42.130;24.746;2023-01-24T11:48:18;7.30;;;5.00;;
8319;SDS011;4197;42.130;24.746;2023-01-24T11:50:53;11.50;;;6.37;;
8319;SDS011;4197;42.130;24.746;2023-01-24T11:53:46;9.63;;;7.33;;
8319;SDS011;4197;42.130;24.746;2023-01-24T11:56:32;11.00;;;7.87;;
8319;SDS011;4197;42.130;24.746;2023-01-24T11:59:17;9.13;;;5.90;;
8319;SDS011;4197;42.130;24.746;2023-01-24T12:02:14;10.17;;;6.63;;
8319;SDS011;4197;42.130;24.746;2023-01-24T12:08:09;10.60;;;6.47;;
8319;SDS011;4197;42.130;24.746;2023-01-24T12:10:54;10.07;;;5.87;;
8319;SDS011;4197;42.130;24.746;2023-01-24T12:13:53;11.27;;;6.70;;
8319;SDS011;4197;42.130;24.746;2023-01-24T12:16:37;8.90;;;6.63;;
8319;SDS011;4197;42.130;24.746;2023-01-24T12:19:26;11.40;;;6.70;;
8319;SDS011;4197;42.130;24.746;2023-01-24T12:22:10;14.10;;;6.93;;
8319;SDS011;4197;42.130;24.746;2023-01-24T12:24:43;14.57;;;6.93;;
8319;SDS011;4197;42.130;24.746;2023-01-24T12:27:19;12.90;;;8.80;;
8319;SDS011;4197;42.130;24.746;2023-01-24T12:29:52;12.37;;;7.67;;
8319;SDS011;4197;42.130;24.746;2023-01-24T12:32:27;12.30;;;7.90;;
8319;SDS011;4197;42.130;24.746;2023-01-24T12:35:04;15.50;;;7.60;;
8319;SDS011;4197;42.130;24.746;2023-01-24T12:37:48;9.77;;;6.33;;
8319;SDS011;4197;42.130;24.746;2023-01-24T12:40:38;9.27;;;6.33;;
8319;SDS011;4197;42.130;24.746;2023-01-24T12:43:16;10.03;;;6.47;;
8319;SDS011;4197;42.130;24.746;2023-01-24T12:45:53;17.10;;;8.60;;
8319;SDS011;4197;42.130;24.746;2023-01-24T12:48:33;12.73;;;8.33;;
8319;SDS011;4197;42.130;24.746;2023-01-24T12:51:10;11.47;;;7.33;;
8319;SDS011;4197;42.130;24.746;2023-01-24T12:53:48;11.67;;;6.70;;
8319;SDS011;4197;42.130;24.746;2023-01-24T12:56:28;9.17;;;7.30;;
8319;SDS011;4197;42.130;24.746;2023-01-24T12:59:12;9.43;;;6.53;;
8319;SDS011;4197;42.130;24.746;2023-01-24T13:04:50;13.80;;;7.70;;
8319;SDS011;4197;42.130;24.746;2023-01-24T13:07:30;14.00;;;8.23;;
8319;SDS011;4197;42.130;24.746;2023-01-24T13:10:05;11.70;;;8.00;;
8319;SDS011;4197;42.130;24.746;2023-01-24T13:12:41;10.93;;;8.67;;
8319;SDS011;4197;42.130;24.746;2023-01-24T13:15:16;13.67;;;8.70;;
8319;SDS011;4197;42.130;24.746;2023-01-24T13:18:02;11.40;;;7.27;;
8319;SDS011;4197;42.130;24.746;2023-01-24T13:20:47;14.57;;;9.30;;
8319;SDS011;4197;42.130;24.746;2023-01-24T13:23:37;10.80;;;7.87;;
8319;SDS011;4197;42.130;24.746;2023-01-24T13:26:37;9.03;;;7.20;;
8319;SDS011;4197;42.130;24.746;2023-01-24T13:29:31;12.67;;;7.60;;
8319;SDS011;4197;42.130;24.746;2023-01-24T13:32:12;17.27;;;8.43;;
8319;SDS011;4197;42.130;24.746;2023-01-24T13:34:44;11.97;;;7.70;;
8319;SDS011;4197;42.130;24.746;2023-01-24T13:37:20;9.67;;;6.27;;
8319;SDS011;4197;42.130;24.746;2023-01-24T13:40:00;18.87;;;7.93;;
8319;SDS011;4197;42.130;24.746;2023-01-24T13:42:34;13.10;;;7.90;;
8319;SDS011;4197;42.130;24.746;2023-01-24T13:51:30;14.13;;;8.27;;
8319;SDS011;4197;42.130;24.746;2023-01-24T13:54:01;14.77;;;9.40;;
8319;SDS011;4197;42.130;24.746;2023-01-24T13:56:32;15.90;;;10.87;;
8319;SDS011;4197;42.130;24.746;2023-01-24T13:59:59;12.97;;;8.50;;
8319;SDS011;4197;42.130;24.746;2023-01-24T14:02:35;15.63;;;11.20;;
8319;SDS011;4197;42.130;24.746;2023-01-24T14:08:14;14.97;;;10.50;;
8319;SDS011;4197;42.130;24.746;2023-01-24T14:16:56;22.87;;;9.80;;
8319;SDS011;4197;42.130;24.746;2023-01-24T14:19:36;15.47;;;9.37;;
8319;SDS011;4197;42.130;24.746;2023-01-24T14:22:06;20.07;;;11.83;;
8319;SDS011;4197;42.130;24.746;2023-01-24T14:24:57;21.00;;;11.30;;
8319;SDS011;4197;42.130;24.746;2023-01-24T14:27:34;29.60;;;17.23;;
8319;SDS011;4197;42.130;24.746;2023-01-24T14:30:18;38.87;;;26.13;;
8319;SDS011;4197;42.130;24.746;2023-01-24T14:32:57;19.50;;;13.13;;
8319;SDS011;4197;42.130;24.746;2023-01-24T14:35:33;17.67;;;10.30;;
8319;SDS011;4197;42.130;24.746;2023-01-24T14:38:15;16.03;;;9.93;;
8319;SDS011;4197;42.130;24.746;2023-01-24T14:40:44;18.27;;;12.67;;
8319;SDS011;4197;42.130;24.746;2023-01-24T14:43:18;22.37;;;12.37;;
8319;SDS011;4197;42.130;24.746;2023-01-24T14:45:50;14.13;;;9.00;;
8319;SDS011;4197;42.130;24.746;2023-01-24T14:48:21;15.50;;;10.47;;
8319;SDS011;4197;42.130;24.746;2023-01-24T14:50:57;14.80;;;9.13;;
8319;SDS011;4197;42.130;24.746;2023-01-24T14:53:31;16.40;;;11.37;;
8319;SDS011;4197;42.130;24.746;2023-01-24T14:56:00;13.20;;;9.40;;
8319;SDS011;4197;42.130;24.746;2023-01-24T14:58:31;14.47;;;9.97;;
8319;SDS011;4197;42.130;24.746;2023-01-24T15:00:59;11.60;;;8.37;;
8319;SDS011;4197;42.130;24.746;2023-01-24T15:03:30;18.93;;;9.73;;
8319;SDS011;4197;42.130;24.746;2023-01-24T15:06:00;11.53;;;7.60;;
8319;SDS011;4197;42.130;24.746;2023-01-24T15:08:30;19.87;;;8.60;;
8319;SDS011;4197;42.130;24.746;2023-01-24T15:11:01;21.93;;;10.20;;
8319;SDS011;4197;42.130;24.746;2023-01-24T15:13:34;29.87;;;13.47;;
8319;SDS011;4197;42.130;24.746;2023-01-24T15:16:04;23.23;;;9.90;;
8319;SDS011;4197;42.130;24.746;2023-01-24T15:21:22;14.23;;;8.70;;
8319;SDS011;4197;42.130;24.746;2023-01-24T15:23:56;17.07;;;9.13;;
8319;SDS011;4197;42.130;24.746;2023-01-24T15:26:32;25.03;;;13.13;;
8319;SDS011;4197;42.130;24.746;2023-01-24T15:32:35;15.17;;;9.33;;
8319;SDS011;4197;42.130;24.746;2023-01-24T15:38:12;16.67;;;10.30;;
8319;SDS011;4197;42.130;24.746;2023-01-24T15:40:49;16.97;;;10.60;;
8319;SDS011;4197;42.130;24.746;2023-01-24T15:43:38;17.30;;;10.13;;
8319;SDS011;4197;42.130;24.746;2023-01-24T15:46:19;16.87;;;10.63;;
8319;SDS011;4197;42.130;24.746;2023-01-24T15:49:20;17.33;;;12.13;;
8319;SDS011;4197;42.130;24.746;2023-01-24T15:54:49;23.10;;;11.27;;
8319;SDS011;4197;42.130;24.746;2023-01-24T15:57:24;16.13;;;11.33;;